Terminal Aerodrome Forecast
Issued by NWS Lake Charles, LA

Home | Current Version | Previous Version | Text Only | Print | Product List | Glossary On
Versions: 1 2 3 4 5 6 7 8 9 10 11 12 13 14 15 16 17 18 19 20 21 22
000
FTUS44 KLCH 261120
TAFARA
TAF
KARA 261120Z 2612/2712 31003KT 1/4SM FG VV002
      TEMPO 2612/2614 4SM BR SCT005 SCT015
     FM261400 VRB05KT P6SM VCTS SCT025CB BKN050
      TEMPO 2618/2622 2SM TSRA BKN025CB
     FM270200 VRB03KT P6SM SCT025 BKN250=

USA.gov is the U.S. government's official web portal to all federal, state and local government web resources and services.